Olney, Oklahoma
Current Conditions -  °F | °C
As of 8:15 PM on Thursday 20 Nov 2014 (Local Time) from KAQR Reporting Station
Clear Clear  
Wind Chill: 52°   Ceiling: Unl
Heat Index: 52°   Visibility: 10mi
Dew Point: 45°   Wind: 5mph
Humidity: 76%   Direction: 120°ESE
Pressure: 30.08"   Gusts: NA
Location:  34.5844°N, 96.2026°W
Report Text: KAQR 210215Z AUTO 12004KT 10SM CLR 11/07 A3008 RMK AO2
Loading
Personal Weather Stations






























Interactive Weather Map New forecast layout! Learn more

10-Day Weather Forecast

Advertisements
Track Severe Weather on mobile